createdAt,value
2024-04-24T00:01:24.058Z,97298.63
2024-04-24T00:03:50.923Z,97337.00
2024-04-24T00:06:17.772Z,97323.72
2024-04-24T00:08:44.581Z,97290.75
2024-04-24T00:11:11.421Z,97342.59
2024-04-24T00:13:38.221Z,97287.03
2024-04-24T00:16:06.449Z,97282.44
2024-04-24T00:18:33.285Z,97287.25
2024-04-24T00:21:00.174Z,97291.56
2024-04-24T00:23:27.136Z,97269.81
2024-04-24T00:25:57.228Z,97274.56
2024-04-24T00:28:24.225Z,97310.03
2024-04-24T00:30:58.394Z,97312.31
2024-04-24T00:33:25.271Z,97322.69
2024-04-24T00:35:52.062Z,97285.78
2024-04-24T00:38:18.859Z,97267.72
2024-04-24T00:40:45.758Z,97290.13
2024-04-24T00:43:12.658Z,97321.66
2024-04-24T00:45:41.591Z,97256.72
2024-04-24T00:48:11.231Z,97269.56
2024-04-24T00:50:42.055Z,97268.13
2024-04-24T00:53:09.983Z,97264.19
2024-04-24T00:55:36.967Z,97246.38
2024-04-24T00:58:04.087Z,97262.97
2024-04-24T01:00:30.896Z,97255.09
2024-04-24T01:02:57.760Z,97253.84
2024-04-24T01:05:24.716Z,97296.75
2024-04-24T01:07:51.562Z,97289.69
2024-04-24T01:10:19.605Z,97274.38
2024-04-24T01:12:46.968Z,97275.63
2024-04-24T01:15:14.481Z,97266.69
2024-04-24T01:17:45.192Z,97255.91
2024-04-24T01:20:17.098Z,97257.38
2024-04-24T01:23:08.676Z,97296.38
2024-04-24T01:26:03.698Z,97278.31
2024-04-24T01:28:30.731Z,97279.34
2024-04-24T01:30:57.518Z,97281.84
2024-04-24T01:33:24.373Z,97250.97
2024-04-24T01:35:51.185Z,97270.44
2024-04-24T01:38:18.082Z,97277.50
2024-04-24T01:40:45.017Z,97264.22
2024-04-24T01:43:14.034Z,97267.53
2024-04-24T01:45:41.787Z,97272.09
2024-04-24T01:48:08.721Z,97256.75
2024-04-24T01:50:35.525Z,97256.94
2024-04-24T01:53:02.389Z,97268.97
2024-04-24T01:55:29.288Z,97256.13
2024-04-24T01:57:56.065Z,97240.78
2024-04-24T02:00:23.004Z,97251.78
2024-04-24T02:02:49.837Z,97236.44
2024-04-24T02:05:16.668Z,97247.22
2024-04-24T02:07:43.556Z,97250.13
2024-04-24T02:10:10.346Z,97266.91
2024-04-24T02:12:37.115Z,97222.13
2024-04-24T02:15:04.227Z,97251.16
2024-04-24T02:17:31.224Z,97255.28
2024-04-24T02:19:58.071Z,97249.47
2024-04-24T02:22:24.862Z,97221.72
2024-04-24T02:25:10.990Z,97245.34
2024-04-24T02:27:37.738Z,97237.28
2024-04-24T02:30:04.849Z,97244.53
2024-04-24T02:32:31.721Z,97224.00
2024-04-24T02:34:58.623Z,97268.38
2024-04-24T02:37:25.381Z,97243.06
2024-04-24T02:39:52.164Z,97260.28
2024-04-24T02:42:19.100Z,97254.66
2024-04-24T02:44:46.996Z,97201.56
2024-04-24T02:47:14.088Z,97266.88
2024-04-24T02:49:41.019Z,97224.78
2024-04-24T02:52:07.778Z,97251.75
2024-04-24T02:54:34.613Z,97263.78
2024-04-24T02:57:01.370Z,97259.22
2024-04-24T02:59:28.135Z,97256.72
2024-04-24T03:01:55.029Z,97242.84
2024-04-24T03:04:21.882Z,97220.66
2024-04-24T03:06:48.622Z,97254.69
2024-04-24T03:09:15.412Z,97247.19
2024-04-24T03:11:42.520Z,97225.63
2024-04-24T03:14:09.566Z,97232.69
2024-04-24T03:16:36.597Z,97233.06
2024-04-24T03:19:03.450Z,97225.63
2024-04-24T03:21:30.196Z,97224.94
2024-04-24T03:23:56.990Z,97225.97
2024-04-24T03:26:23.944Z,97279.13
2024-04-24T03:28:50.805Z,97240.88
2024-04-24T03:31:17.609Z,97258.72
2024-04-24T03:33:45.828Z,97228.22
2024-04-24T03:36:12.644Z,97297.13
2024-04-24T03:38:39.451Z,97253.69
2024-04-24T03:41:06.521Z,97254.34
2024-04-24T03:43:33.320Z,97256.19
2024-04-24T03:46:00.945Z,97242.31
2024-04-24T03:48:27.762Z,97300.22
2024-04-24T03:50:54.532Z,97289.81
2024-04-24T03:53:21.447Z,97273.25
2024-04-24T03:55:48.239Z,97250.63
2024-04-24T03:58:15.069Z,97252.06
2024-04-24T04:00:41.937Z,97291.75
2024-04-24T04:03:12.033Z,97280.94
2024-04-24T04:05:38.861Z,97266.63
2024-04-24T04:08:06.219Z,97266.03
2024-04-24T04:10:33.025Z,97270.84
2024-04-24T04:13:00.031Z,97288.47
2024-04-24T04:15:26.802Z,97277.03
2024-04-24T04:17:54.028Z,97270.03
2024-04-24T04:20:21.128Z,97266.69
2024-04-24T04:22:47.994Z,97259.03
2024-04-24T04:25:15.002Z,97296.78
2024-04-24T04:27:41.843Z,97283.28
2024-04-24T04:30:10.465Z,97257.97
2024-04-24T04:32:37.361Z,97291.56
2024-04-24T04:35:04.307Z,97231.84
2024-04-24T04:37:31.101Z,97253.59
2024-04-24T04:39:57.858Z,97278.47
2024-04-24T04:42:24.607Z,97259.34
2024-04-24T04:44:51.433Z,97306.63
2024-04-24T04:47:18.309Z,97275.28
2024-04-24T04:49:45.152Z,97277.75
2024-04-24T04:52:12.020Z,97263.63
2024-04-24T04:54:38.852Z,97280.66
2024-04-24T04:57:05.635Z,97257.19
2024-04-24T04:59:32.521Z,97312.25
2024-04-24T05:02:00.018Z,97252.47
2024-04-24T05:04:27.057Z,97263.38
2024-04-24T05:06:53.903Z,97279.44
2024-04-24T05:09:20.727Z,97286.72
2024-04-24T05:11:50.225Z,97263.72
2024-04-24T05:14:17.427Z,97327.00
2024-04-24T05:16:44.298Z,97304.34
2024-04-24T05:19:11.193Z,97285.66
2024-04-24T05:21:38.008Z,97284.47
2024-04-24T05:24:05.233Z,97279.28
2024-04-24T05:26:50.707Z,97277.00
2024-04-24T05:29:17.530Z,97295.44
2024-04-24T05:31:44.374Z,97300.66
2024-04-24T05:34:11.280Z,97296.03
2024-04-24T05:36:38.124Z,97287.63
2024-04-24T05:39:04.956Z,97290.53
2024-04-24T05:41:31.758Z,97337.13
2024-04-24T05:43:58.625Z,97304.50
2024-04-24T05:46:25.422Z,97320.72
2024-04-24T05:48:52.329Z,97318.41
2024-04-24T05:51:19.348Z,97315.66
2024-04-24T05:53:46.202Z,97317.06
2024-04-24T05:56:13.177Z,97352.53
2024-04-24T05:58:40.035Z,97335.50
2024-04-24T06:01:06.847Z,97350.50
2024-04-24T06:03:33.667Z,97320.06
2024-04-24T06:06:00.426Z,97328.84
2024-04-24T06:08:27.210Z,97309.84
2024-04-24T06:10:54.083Z,97298.91
2024-04-24T06:13:20.962Z,97335.91
2024-04-24T06:15:47.800Z,97330.00
2024-04-24T06:18:14.691Z,97329.06
2024-04-24T06:20:41.599Z,97332.88
2024-04-24T06:23:08.566Z,97324.50
2024-04-24T06:25:35.368Z,97358.19
2024-04-24T06:28:02.074Z,97321.78
2024-04-24T06:30:28.872Z,97309.34
2024-04-24T06:32:55.733Z,97327.06
2024-04-24T06:35:26.681Z,97356.53
2024-04-24T06:37:54.995Z,97322.75
2024-04-24T06:40:22.404Z,97320.19
2024-04-24T06:42:53.035Z,97323.31
2024-04-24T06:45:19.862Z,97322.88
2024-04-24T06:47:46.650Z,97317.06
2024-04-24T06:50:13.603Z,97310.22
2024-04-24T06:52:40.406Z,97333.44
2024-04-24T06:55:07.280Z,97317.53
2024-04-24T06:57:34.415Z,97338.69
2024-04-24T07:00:01.185Z,97336.19
2024-04-24T07:02:28.058Z,97323.00
2024-04-24T07:04:54.921Z,97346.47
2024-04-24T07:07:23.441Z,97350.63
2024-04-24T07:09:50.533Z,97367.22
2024-04-24T07:12:17.284Z,97303.81
2024-04-24T07:14:44.120Z,97326.72
2024-04-24T07:17:11.073Z,97346.09
2024-04-24T07:19:37.974Z,97331.75
2024-04-24T07:22:05.146Z,97355.53
2024-04-24T07:24:31.930Z,97310.69
2024-04-24T07:26:58.731Z,97313.31
2024-04-24T07:29:25.658Z,97341.84
2024-04-24T07:31:52.569Z,97350.97
2024-04-24T07:34:19.344Z,97329.38
2024-04-24T07:36:46.096Z,97337.88
2024-04-24T07:39:12.979Z,97333.75
2024-04-24T07:41:42.994Z,97342.44
2024-04-24T07:44:10.541Z,97352.03
2024-04-24T07:46:37.867Z,97346.94
2024-04-24T07:49:04.826Z,97367.69
2024-04-24T07:51:31.704Z,97345.28
2024-04-24T07:53:58.531Z,97350.06
2024-04-24T07:56:25.694Z,97353.09
2024-04-24T07:58:52.672Z,97359.69
2024-04-24T08:01:23.479Z,97360.75
2024-04-24T08:03:50.405Z,97356.13
2024-04-24T08:06:17.337Z,97363.00
2024-04-24T08:08:44.259Z,97385.41
2024-04-24T08:11:13.694Z,97376.25
2024-04-24T08:13:40.652Z,97366.25
2024-04-24T08:16:07.658Z,97377.88
2024-04-24T08:18:34.927Z,97355.22
2024-04-24T08:21:02.615Z,97343.63
2024-04-24T08:23:29.839Z,97391.72
2024-04-24T08:25:56.805Z,97368.09
2024-04-24T08:28:33.224Z,97384.09
2024-04-24T08:31:07.261Z,97383.47
2024-04-24T08:33:35.165Z,97420.00
2024-04-24T08:36:16.083Z,97387.34
2024-04-24T08:38:42.986Z,97418.91
2024-04-24T08:41:11.898Z,97409.59
2024-04-24T08:43:41.131Z,97379.13
2024-04-24T08:46:09.459Z,97406.56
2024-04-24T08:48:41.339Z,97401.03
2024-04-24T08:51:10.067Z,97361.75
2024-04-24T08:53:38.197Z,97388.91
2024-04-24T08:56:07.141Z,97381.22
2024-04-24T08:58:36.968Z,97379.38
2024-04-24T09:01:14.416Z,97351.09
2024-04-24T09:03:46.748Z,97378.44
2024-04-24T09:06:17.312Z,97331.03
2024-04-24T09:08:46.067Z,97346.53
2024-04-24T09:11:13.341Z,97344.28
2024-04-24T09:13:41.373Z,97375.28
2024-04-24T09:16:09.262Z,97343.09
2024-04-24T09:18:36.078Z,97339.38
2024-04-24T09:21:04.658Z,97336.25
2024-04-24T09:23:31.450Z,97307.81
2024-04-24T09:25:59.220Z,97333.41
2024-04-24T09:28:26.889Z,97365.47
2024-04-24T09:30:58.691Z,97325.78
2024-04-24T09:33:25.743Z,97322.34
2024-04-24T09:35:52.777Z,97339.81
2024-04-24T09:38:19.788Z,97354.81
2024-04-24T09:40:47.051Z,97338.44
2024-04-24T09:43:14.723Z,97321.59
2024-04-24T09:45:41.794Z,97339.22
2024-04-24T09:48:09.107Z,97310.50
2024-04-24T09:50:40.219Z,97313.78
2024-04-24T09:53:07.163Z,97347.56
2024-04-24T09:55:39.258Z,97347.88
2024-04-24T09:58:12.087Z,97349.50
2024-04-24T10:00:39.490Z,97298.72
2024-04-24T10:05:43.736Z,97316.84
2024-04-24T10:08:25.092Z,97330.97
2024-04-24T10:10:56.227Z,97346.69
2024-04-24T10:13:24.651Z,97317.47
2024-04-24T10:16:04.287Z,97323.88
2024-04-24T10:18:31.910Z,97342.81
2024-04-24T10:21:00.381Z,97310.16
2024-04-24T10:23:31.112Z,97338.13
2024-04-24T10:25:59.570Z,97294.59
2024-04-24T10:28:28.735Z,97332.03
2024-04-24T10:30:57.914Z,97343.97
2024-04-24T10:33:26.550Z,97332.91
2024-04-24T10:35:53.919Z,97322.75
2024-04-24T10:38:20.812Z,97314.53
2024-04-24T10:40:49.769Z,97349.34
2024-04-24T10:43:17.667Z,97329.44
2024-04-24T10:45:45.312Z,97343.88
2024-04-24T10:48:13.108Z,97351.31
2024-04-24T10:50:40.926Z,97343.25
2024-04-24T10:53:08.782Z,97344.31
2024-04-24T10:55:35.828Z,97360.16
2024-04-24T10:58:17.044Z,97358.00
2024-04-24T11:00:43.850Z,97316.72
2024-04-24T11:03:11.057Z,97348.59
2024-04-24T11:05:39.471Z,97333.22
2024-04-24T11:08:06.576Z,97336.22
2024-04-24T11:10:34.148Z,97331.50
2024-04-24T11:13:03.766Z,97310.13
2024-04-24T11:15:31.255Z,97317.94
2024-04-24T11:17:58.395Z,97316.41
2024-04-24T11:20:26.290Z,97348.53
2024-04-24T11:22:53.140Z,97323.38
2024-04-24T11:25:20.211Z,97306.97
2024-04-24T11:27:47.454Z,97339.75
2024-04-24T11:30:15.983Z,97330.25
2024-04-24T11:32:54.924Z,97294.78
2024-04-24T11:35:22.943Z,97300.88
2024-04-24T11:37:51.600Z,97303.47
2024-04-24T11:40:18.765Z,97315.50
2024-04-24T11:42:50.133Z,97343.81
2024-04-24T11:45:20.617Z,97331.78
2024-04-24T11:47:53.232Z,97322.31
2024-04-24T11:50:21.194Z,97306.06
2024-04-24T11:52:49.487Z,97311.78
2024-04-24T11:55:17.402Z,97319.22
2024-04-24T11:57:45.076Z,97320.09
2024-04-24T12:00:12.996Z,97294.41
2024-04-24T12:02:40.229Z,97296.47
2024-04-24T12:05:07.999Z,97304.88
2024-04-24T12:07:43.371Z,97295.38
2024-04-24T12:10:10.446Z,97288.94
2024-04-24T12:12:37.302Z,97334.88
2024-04-24T12:15:04.443Z,97273.88
2024-04-24T12:17:31.298Z,97283.50
2024-04-24T12:19:58.174Z,97309.81
2024-04-24T12:22:25.058Z,97297.84
2024-04-24T12:24:51.930Z,97297.41
2024-04-24T12:27:21.917Z,97301.56
2024-04-24T12:29:49.480Z,97309.63
2024-04-24T12:32:17.349Z,97288.28
2024-04-24T12:34:44.487Z,97297.13
2024-04-24T12:37:11.377Z,97290.34
2024-04-24T12:39:38.250Z,97289.13
2024-04-24T12:42:05.336Z,97287.22
2024-04-24T12:44:34.532Z,97264.00
2024-04-24T12:47:01.551Z,97253.19
2024-04-24T12:49:28.387Z,97265.97
2024-04-24T12:51:56.165Z,97245.69
2024-04-24T12:54:23.173Z,97293.25
2024-04-24T12:56:49.987Z,97253.59
2024-04-24T12:59:16.819Z,97249.84
2024-04-24T13:01:43.699Z,97240.84
2024-04-24T13:04:10.567Z,97217.19
2024-04-24T13:06:39.058Z,97242.47
2024-04-24T13:09:06.926Z,97239.78
2024-04-24T13:11:33.842Z,97232.75
2024-04-24T13:14:00.769Z,97223.63
2024-04-24T13:16:27.641Z,97225.38
2024-04-24T13:18:54.573Z,97237.03
2024-04-24T13:21:21.491Z,97233.06
2024-04-24T13:23:48.818Z,97251.97
2024-04-24T13:26:15.616Z,97217.88
2024-04-24T13:28:43.566Z,97220.03
2024-04-24T13:31:11.803Z,97216.53
2024-04-24T13:33:38.883Z,97180.41
2024-04-24T13:36:05.963Z,97165.91
2024-04-24T13:38:32.820Z,97225.94
2024-04-24T13:41:06.252Z,97191.53
2024-04-24T13:43:33.067Z,97167.69
2024-04-24T13:45:59.857Z,97185.00
2024-04-24T13:48:32.751Z,97188.81
2024-04-24T13:51:00.164Z,97186.91
2024-04-24T13:53:27.143Z,97195.63
2024-04-24T13:55:55.391Z,97167.16
2024-04-24T13:58:22.397Z,97166.88
2024-04-24T14:00:49.194Z,97179.94
2024-04-24T14:03:17.518Z,97189.72
2024-04-24T14:05:46.959Z,97193.53
2024-04-24T14:08:13.840Z,97189.84
2024-04-24T14:10:40.799Z,97196.22
2024-04-24T14:13:07.610Z,97182.75
2024-04-24T14:15:34.702Z,97198.69
2024-04-24T14:18:01.584Z,97212.94
2024-04-24T14:20:28.534Z,97191.56
2024-04-24T14:22:55.727Z,97189.38
2024-04-24T14:25:22.542Z,97176.47
2024-04-24T14:27:52.140Z,97215.06
2024-04-24T14:30:19.890Z,97191.22
2024-04-24T14:32:47.006Z,97192.41
2024-04-24T14:35:14.717Z,97187.47
2024-04-24T14:37:41.919Z,97189.72
2024-04-24T14:40:09.230Z,97210.78
2024-04-24T14:42:37.370Z,97215.22
2024-04-24T14:45:05.381Z,97189.50
2024-04-24T14:47:32.374Z,97180.72
2024-04-24T14:49:59.499Z,97165.91
2024-04-24T14:52:26.523Z,97176.06
2024-04-24T14:54:53.401Z,97179.88
2024-04-24T14:57:20.583Z,97167.59
2024-04-24T14:59:47.422Z,97169.47
2024-04-24T15:02:14.474Z,97174.94
2024-04-24T15:04:41.352Z,97174.66
2024-04-24T15:07:12.562Z,97182.09
2024-04-24T15:09:39.876Z,97167.25
2024-04-24T15:12:09.587Z,97170.78
2024-04-24T15:14:36.502Z,97200.94
2024-04-24T15:17:04.051Z,97189.66
2024-04-24T15:19:31.082Z,97150.53
2024-04-24T15:21:59.297Z,97159.84
2024-04-24T15:24:26.275Z,97148.31
2024-04-24T15:26:53.154Z,97122.59
2024-04-24T15:29:20.055Z,97150.78
2024-04-24T15:31:46.929Z,97159.56
2024-04-24T15:34:15.319Z,97148.59
2024-04-24T15:36:43.117Z,97170.50
2024-04-24T15:39:10.878Z,97132.44
2024-04-24T15:41:39.512Z,97128.09
2024-04-24T15:44:06.437Z,97125.94
2024-04-24T15:46:33.296Z,97148.13
2024-04-24T15:49:02.624Z,97118.59
2024-04-24T15:51:29.419Z,97130.34
2024-04-24T15:53:56.280Z,97164.31
2024-04-24T15:56:23.196Z,97124.91
2024-04-24T15:58:50.020Z,97124.66
2024-04-24T16:01:19.783Z,97142.19
2024-04-24T16:03:46.655Z,97130.97
2024-04-24T16:06:19.933Z,97121.66
2024-04-24T16:08:46.832Z,97156.16
2024-04-24T16:11:14.159Z,97104.69
2024-04-24T16:13:41.162Z,97123.31
2024-04-24T16:16:08.142Z,97100.28
2024-04-24T16:18:42.528Z,97114.50
2024-04-24T16:21:15.786Z,97113.16
2024-04-24T16:23:42.674Z,97133.63
2024-04-24T16:26:09.680Z,97134.16
2024-04-24T16:28:37.653Z,97144.31
2024-04-24T16:31:04.697Z,97092.88
2024-04-24T16:33:33.725Z,97127.66
2024-04-24T16:36:00.560Z,97127.69
2024-04-24T16:38:29.066Z,97113.75
2024-04-24T16:40:56.028Z,97127.16
2024-04-24T16:43:24.259Z,97143.06
2024-04-24T16:45:51.181Z,97109.41
2024-04-24T16:48:19.766Z,97126.34
2024-04-24T16:50:46.912Z,97141.13
2024-04-24T16:53:13.719Z,97104.19
2024-04-24T16:55:40.570Z,97107.72
2024-04-24T16:58:07.606Z,97127.72
2024-04-24T17:00:34.980Z,97105.84
2024-04-24T17:03:02.301Z,97112.38
2024-04-24T17:05:29.242Z,97162.25
2024-04-24T17:07:56.351Z,97133.72
2024-04-24T17:10:24.655Z,97150.72
2024-04-24T17:12:51.930Z,97110.66
2024-04-24T17:15:18.826Z,97151.53
2024-04-24T17:17:45.889Z,97121.88
2024-04-24T17:20:12.891Z,97132.84
2024-04-24T17:22:40.710Z,97143.28
2024-04-24T17:25:07.597Z,97157.22
2024-04-24T17:27:34.388Z,97141.56
2024-04-24T17:30:01.243Z,97158.84
2024-04-24T17:32:28.307Z,97158.31
2024-04-24T17:34:55.358Z,97148.97
2024-04-24T17:37:22.273Z,97141.28
2024-04-24T17:39:49.091Z,97182.38
2024-04-24T17:42:16.816Z,97161.53
2024-04-24T17:44:46.437Z,97161.50
2024-04-24T17:47:13.337Z,97142.88
2024-04-24T17:49:40.271Z,97158.19
2024-04-24T17:52:07.302Z,97128.28
2024-04-24T17:54:37.094Z,97163.03
2024-04-24T17:57:04.157Z,97166.34
2024-04-24T17:59:31.136Z,97172.09
2024-04-24T18:01:57.977Z,97147.41
2024-04-24T18:04:25.182Z,97188.00
2024-04-24T18:06:52.155Z,97201.41
2024-04-24T18:09:19.803Z,97170.44
2024-04-24T18:11:47.967Z,97163.56
2024-04-24T18:14:15.133Z,97164.66
2024-04-24T18:16:42.456Z,97169.59
2024-04-24T18:19:09.453Z,97212.09
2024-04-24T18:21:39.212Z,97178.84
2024-04-24T18:24:07.683Z,97167.84
2024-04-24T18:26:46.478Z,97182.66
2024-04-24T18:29:13.274Z,97165.88
2024-04-24T18:31:40.131Z,97155.13
2024-04-24T18:34:09.727Z,97158.41
2024-04-24T18:36:37.447Z,97174.22
2024-04-24T18:39:04.581Z,97182.47
2024-04-24T18:41:31.415Z,97155.59
2024-04-24T18:43:59.579Z,97179.66
2024-04-24T18:49:07.392Z,97205.34
2024-04-24T18:51:34.741Z,97197.59
2024-04-24T18:54:01.513Z,97172.59
2024-04-24T18:56:28.331Z,97223.94
2024-04-24T18:58:55.460Z,97200.81
2024-04-24T19:01:23.446Z,97190.31
2024-04-24T19:03:50.338Z,97200.09
2024-04-24T19:06:17.173Z,97210.53
2024-04-24T19:08:44.097Z,97201.94
2024-04-24T19:11:11.000Z,97225.81
2024-04-24T19:13:38.209Z,97181.75
2024-04-24T19:16:05.395Z,97210.63
2024-04-24T19:18:34.937Z,97211.97
2024-04-24T19:21:07.849Z,97205.50
2024-04-24T19:23:34.968Z,97246.75
2024-04-24T19:26:02.089Z,97203.16
2024-04-24T19:28:28.979Z,97207.84
2024-04-24T19:30:55.755Z,97214.41
2024-04-24T19:33:23.032Z,97194.31
2024-04-24T19:35:53.394Z,97221.25
2024-04-24T19:38:23.186Z,97226.97
2024-04-24T19:40:50.169Z,97215.66
2024-04-24T19:43:18.358Z,97222.47
2024-04-24T19:45:45.179Z,97220.13
2024-04-24T19:48:13.067Z,97215.19
2024-04-24T19:50:39.955Z,97215.03
2024-04-24T19:53:06.912Z,97205.03
2024-04-24T19:55:36.213Z,97212.94
2024-04-24T19:58:03.324Z,97257.94
2024-04-24T20:00:30.160Z,97200.25
2024-04-24T20:02:57.280Z,97188.41
2024-04-24T20:05:24.727Z,97218.28
2024-04-24T20:07:51.762Z,97244.13
2024-04-24T20:10:18.619Z,97189.56
2024-04-24T20:12:45.523Z,97216.63
2024-04-24T20:15:12.320Z,97199.03
2024-04-24T20:17:39.232Z,97238.88
2024-04-24T20:20:06.825Z,97217.44
2024-04-24T20:22:33.622Z,97210.53
2024-04-24T20:25:00.598Z,97199.78
2024-04-24T20:27:27.428Z,97223.13
2024-04-24T20:29:54.164Z,97202.72
2024-04-24T20:32:21.010Z,97211.00
2024-04-24T20:34:47.873Z,97202.72
2024-04-24T20:37:14.682Z,97204.06
2024-04-24T20:39:42.096Z,97206.19
2024-04-24T20:42:11.303Z,97203.22
2024-04-24T20:44:39.344Z,97212.03
2024-04-24T20:47:06.359Z,97193.72
2024-04-24T20:49:33.174Z,97188.28
2024-04-24T20:51:59.940Z,97189.47
2024-04-24T20:54:26.717Z,97214.97
2024-04-24T20:56:53.508Z,97202.84
2024-04-24T20:59:21.478Z,97193.28
2024-04-24T21:01:48.316Z,97199.72
2024-04-24T21:04:15.183Z,97176.47
2024-04-24T21:06:42.057Z,97190.31
2024-04-24T21:09:08.824Z,97203.28
2024-04-24T21:11:35.729Z,97211.75
2024-04-24T21:14:02.832Z,97202.22
2024-04-24T21:16:29.671Z,97201.63
2024-04-24T21:18:58.612Z,97183.66
2024-04-24T21:21:25.442Z,97168.59
2024-04-24T21:23:52.395Z,97193.81
2024-04-24T21:26:19.291Z,97164.88
2024-04-24T21:28:46.363Z,97216.38
2024-04-24T21:31:13.196Z,97211.38
2024-04-24T21:33:40.038Z,97173.44
2024-04-24T21:36:07.377Z,97161.41
2024-04-24T21:38:37.116Z,97184.16
2024-04-24T21:41:07.939Z,97195.41
2024-04-24T21:43:34.731Z,97203.47
2024-04-24T21:46:07.585Z,97183.34
2024-04-24T21:48:34.517Z,97181.19
2024-04-24T21:51:01.616Z,97212.94
2024-04-24T21:53:28.589Z,97182.63
2024-04-24T21:55:58.177Z,97202.31
2024-04-24T21:58:25.708Z,97202.75
2024-04-24T22:00:52.647Z,97197.28
2024-04-24T22:03:21.045Z,97154.63
2024-04-24T22:05:47.892Z,97184.34
2024-04-24T22:08:14.859Z,97205.78
2024-04-24T22:10:42.013Z,97185.44
2024-04-24T22:13:08.831Z,97184.28
2024-04-24T22:15:36.799Z,97183.69
2024-04-24T22:18:05.509Z,97158.66
2024-04-24T22:20:32.569Z,97188.38
2024-04-24T22:22:59.391Z,97189.94
2024-04-24T22:25:26.141Z,97158.31
2024-04-24T22:27:53.009Z,97186.84
2024-04-24T22:30:19.756Z,97171.25
2024-04-24T22:32:46.741Z,97143.47
2024-04-24T22:35:13.719Z,97162.00
2024-04-24T22:37:40.608Z,97214.56
2024-04-24T22:40:07.941Z,97184.53
2024-04-24T22:42:34.699Z,97190.28
2024-04-24T22:45:01.503Z,97187.56
2024-04-24T22:47:28.299Z,97172.72
2024-04-24T22:49:55.142Z,97200.13
2024-04-24T22:52:21.933Z,97185.75
2024-04-24T22:54:48.704Z,97177.00
2024-04-24T22:57:15.535Z,97188.06
2024-04-24T22:59:42.885Z,97194.06
2024-04-24T23:02:09.806Z,97222.13
2024-04-24T23:04:36.642Z,97175.84
2024-04-24T23:07:03.589Z,97202.34
2024-04-24T23:09:30.473Z,97194.06
2024-04-24T23:11:57.373Z,97189.13
2024-04-24T23:14:28.225Z,97189.78
2024-04-24T23:16:55.585Z,97209.75
2024-04-24T23:19:22.834Z,97196.78
2024-04-24T23:21:49.940Z,97216.38
2024-04-24T23:24:16.693Z,97160.59
2024-04-24T23:26:48.840Z,97147.25
2024-04-24T23:29:16.039Z,97146.41
2024-04-24T23:31:42.891Z,97203.09
2024-04-24T23:34:09.660Z,97138.34
2024-04-24T23:36:36.530Z,97173.47
2024-04-24T23:39:03.288Z,97141.16
2024-04-24T23:41:30.035Z,97177.94
2024-04-24T23:43:56.827Z,97170.03
2024-04-24T23:46:23.801Z,97173.44
2024-04-24T23:48:50.952Z,97173.44
2024-04-24T23:51:17.780Z,97153.88
2024-04-24T23:53:44.669Z,97165.81
2024-04-24T23:56:11.480Z,97126.94
2024-04-24T23:58:38.220Z,97147.91
